Time;durP1;ratioP1;P1;durP2;ratioP2;P2;SDS_P1;SDS_P2;PMS_P1;PMS_P2;Temp;Humidity;BMP_temperature;BMP_pressure;BME280_temperature;BME280_humidity;BME280_pressure;Samples;Min_cycle;Max_cycle;Signal;HPM_P1;HPM_P2
2021/08/24 00:00:30;;;;;;;2.22;2.03;;;16.60;99.90;;;;;;2629870;47;20137;-76
2021/08/24 00:03:01;;;;;;;3.28;1.80;;;16.50;99.90;;;;;;2629600;54;20161;-76
2021/08/24 00:05:33;;;;;;;1.80;1.65;;;16.40;99.90;;;;;;2630347;47;20197;-77
2021/08/24 00:08:02;;;;;;;2.17;1.70;;;16.40;99.90;;;;;;2631189;54;20137;-76
2021/08/24 00:10:37;;;;;;;2.25;1.63;;;16.40;99.90;;;;;;2630925;47;20141;-77
2021/08/24 00:13:07;;;;;;;2.42;1.67;;;16.40;99.90;;;;;;2631010;46;20151;-76
2021/08/24 00:15:36;;;;;;;1.73;1.52;;;16.40;99.90;;;;;;2630721;54;20817;-76
2021/08/24 00:18:06;;;;;;;2.17;1.50;;;16.40;99.90;;;;;;2630885;46;20156;-76
2021/08/24 00:20:35;;;;;;;2.72;2.13;;;16.40;99.90;;;;;;2631065;54;20137;-76
2021/08/24 00:23:05;;;;;;;2.35;1.80;;;16.40;99.90;;;;;;2630939;47;20213;-76
2021/08/24 00:25:38;;;;;;;2.50;1.60;;;16.30;99.90;;;;;;2630827;47;20157;-76
2021/08/24 00:28:07;;;;;;;1.90;1.63;;;16.30;99.90;;;;;;2631124;54;20133;-77
2021/08/24 00:30:38;;;;;;;2.70;2.10;;;16.30;99.90;;;;;;2630715;47;20149;-77
2021/08/24 00:33:06;;;;;;;1.88;1.77;;;16.30;99.90;;;;;;2638170;39;20713;-76
2021/08/24 00:35:38;;;;;;;2.85;1.80;;;16.20;99.90;;;;;;2630800;54;20176;-78
2021/08/24 00:38:08;;;;;;;4.55;1.90;;;16.10;99.90;;;;;;2631054;54;20140;-76
2021/08/24 00:40:39;;;;;;;3.45;2.17;;;16.10;99.90;;;;;;2641071;39;20450;-76
2021/08/24 00:43:09;;;;;;;3.72;1.92;;;16.10;99.90;;;;;;2631774;46;20157;-77
2021/08/24 00:45:40;;;;;;;2.78;1.63;;;16.00;99.90;;;;;;2630704;47;20179;-76
2021/08/24 00:48:10;;;;;;;2.63;1.55;;;16.00;99.90;;;;;;2633056;46;20220;-78
2021/08/24 00:50:46;;;;;;;2.35;1.73;;;16.00;99.90;;;;;;2633934;39;20681;-76
2021/08/24 00:53:19;;;;;;;1.98;1.75;;;16.00;99.90;;;;;;2630966;54;20129;-76
2021/08/24 00:55:52;;;;;;;3.63;2.40;;;15.90;99.90;;;;;;2630730;54;20164;-76
2021/08/24 00:58:21;;;;;;;5.32;2.28;;;16.00;99.90;;;;;;2630883;54;20180;-77
2021/08/24 01:00:50;;;;;;;1.67;1.58;;;16.00;99.90;;;;;;2630728;47;20157;-78
2021/08/24 01:03:22;;;;;;;1.83;1.60;;;16.10;99.90;;;;;;2632694;46;20209;-76
2021/08/24 01:05:53;;;;;;;3.53;1.83;;;16.10;99.90;;;;;;2630751;54;20161;-76
2021/08/24 01:08:47;;;;;;;2.20;1.48;;;16.10;99.90;;;;;;2630944;54;20160;-76
2021/08/24 01:11:26;;;;;;;3.55;2.10;;;16.10;99.90;;;;;;2630873;54;20136;-77
2021/08/24 01:14:14;;;;;;;3.63;2.17;;;16.00;99.90;;;;;;2630911;47;20137;-76
2021/08/24 01:16:46;;;;;;;4.30;1.95;;;15.80;99.90;;;;;;2630464;47;20139;-76
2021/08/24 01:19:43;;;;;;;1.73;1.63;;;15.70;99.90;;;;;;2634964;47;20796;-77
2021/08/24 01:22:28;;;;;;;1.73;1.63;;;15.80;99.90;;;;;;2630923;47;20150;-76
2021/08/24 01:25:02;;;;;;;2.00;1.88;;;15.80;99.90;;;;;;2630602;54;20152;-76
2021/08/24 01:27:36;;;;;;;2.47;2.13;;;15.70;99.90;;;;;;2633031;39;20803;-76
2021/08/24 01:30:20;;;;;;;1.92;1.52;;;15.50;99.90;;;;;;2630654;47;20129;-77
2021/08/24 01:33:16;;;;;;;3.97;1.60;;;15.50;99.90;;;;;;2630768;47;20149;-76
2021/08/24 01:36:06;;;;;;;3.22;1.38;;;15.40;99.90;;;;;;2630530;54;20187;-76
2021/08/24 01:38:41;;;;;;;3.92;1.92;;;15.30;99.90;;;;;;2630817;47;20201;-77
2021/08/24 01:41:14;;;;;;;3.65;1.60;;;15.40;99.90;;;;;;2634325;39;20768;-77
2021/08/24 01:43:56;;;;;;;2.08;1.60;;;15.50;99.90;;;;;;2630788;54;20155;-76
2021/08/24 01:46:36;;;;;;;2.25;2.05;;;15.50;99.90;;;;;;2631327;39;20680;-76
2021/08/24 01:49:07;;;;;;;3.42;2.70;;;15.70;99.90;;;;;;2630741;54;20156;-76
2021/08/24 01:51:43;;;;;;;3.75;1.88;;;15.60;99.90;;;;;;2630705;47;20164;-76
2021/08/24 01:54:20;;;;;;;2.22;1.98;;;15.00;99.90;;;;;;2630426;54;20151;-76
2021/08/24 01:56:52;;;;;;;3.33;1.88;;;14.60;99.90;;;;;;2630706;47;20313;-76
2021/08/24 01:59:27;;;;;;;4.18;1.80;;;14.20;99.90;;;;;;2630465;47;20133;-76
2021/08/24 02:02:01;;;;;;;4.05;1.77;;;13.80;99.90;;;;;;2630445;54;20149;-77
2021/08/24 02:04:36;;;;;;;2.78;1.83;;;13.60;99.90;;;;;;2630405;47;20213;-76
2021/08/24 02:07:11;;;;;;;2.25;1.88;;;13.50;99.90;;;;;;2630658;47;20125;-77
2021/08/24 02:09:44;;;;;;;2.65;2.42;;;13.40;99.90;;;;;;2632472;39;20919;-76
2021/08/24 02:12:14;;;;;;;3.47;2.00;;;13.30;99.90;;;;;;2630774;54;20156;-76
2021/08/24 02:14:44;;;;;;;4.72;1.83;;;13.10;99.90;;;;;;2630288;47;20162;-76
2021/08/24 02:17:16;;;;;;;2.50;1.70;;;13.20;99.90;;;;;;2630577;54;20141;-76
2021/08/24 02:19:49;;;;;;;1.98;1.65;;;13.40;99.90;;;;;;2630453;47;20735;-77
2021/08/24 02:22:27;;;;;;;2.05;1.80;;;13.10;99.90;;;;;;2631657;46;20189;-77
2021/08/24 02:25:03;;;;;;;4.78;1.83;;;12.80;99.90;;;;;;2629902;47;20215;-76
2021/08/24 02:27:37;;;;;;;2.67;2.03;;;12.80;99.90;;;;;;2630427;54;20205;-76
2021/08/24 02:30:07;;;;;;;2.45;2.05;;;12.80;99.90;;;;;;2631119;54;20179;-76
2021/08/24 02:32:39;;;;;;;4.00;2.17;;;12.90;99.90;;;;;;2631935;46;20193;-76
2021/08/24 02:35:13;;;;;;;2.03;1.88;;;13.00;99.90;;;;;;2631257;47;20201;-76
2021/08/24 02:37:51;;;;;;;1.90;1.80;;;13.60;99.90;;;;;;2633915;39;20846;-77
2021/08/24 02:40:26;;;;;;;1.95;1.75;;;14.00;99.90;;;;;;2634001;39;20676;-76
2021/08/24 02:43:01;;;;;;;2.38;2.17;;;13.90;99.90;;;;;;2631455;54;20295;-76
2021/08/24 02:45:35;;;;;;;3.00;2.30;;;13.80;99.90;;;;;;2631179;54;20145;-76
2021/08/24 02:48:08;;;;;;;2.72;1.70;;;13.50;99.90;;;;;;2631178;47;20149;-76
2021/08/24 02:50:37;;;;;;;2.20;1.67;;;13.50;99.90;;;;;;2631370;47;20133;-76
2021/08/24 02:53:09;;;;;;;2.28;2.08;;;13.70;99.90;;;;;;2631431;46;20145;-76
2021/08/24 02:55:38;;;;;;;3.60;2.15;;;13.40;99.90;;;;;;2631002;47;20180;-76
2021/08/24 02:58:07;;;;;;;5.07;2.58;;;13.20;99.90;;;;;;2631344;54;20137;-76
2021/08/24 03:00:36;;;;;;;2.28;2.08;;;13.20;99.90;;;;;;2631297;46;20142;-76
2021/08/24 03:03:04;;;;;;;5.13;2.60;;;13.10;99.90;;;;;;2631095;54;20260;-76
2021/08/24 03:05:34;;;;;;;2.30;2.10;;;13.00;99.90;;;;;;2630865;47;21096;-76
2021/08/24 03:08:03;;;;;;;1.88;1.77;;;13.00;99.90;;;;;;2631284;47;20873;-76
2021/08/24 03:10:38;;;;;;;1.55;1.40;;;13.10;99.90;;;;;;2631386;47;20130;-77
2021/08/24 03:13:14;;;;;;;2.30;2.10;;;13.00;99.90;;;;;;2631253;47;20155;-76
2021/08/24 03:15:52;;;;;;;2.60;2.28;;;13.20;99.90;;;;;;2631101;47;20180;-76
2021/08/24 03:18:26;;;;;;;3.97;2.40;;;13.30;99.90;;;;;;2631306;54;20130;-76
2021/08/24 03:20:58;;;;;;;6.05;2.13;;;13.40;99.90;;;;;;2631294;54;20133;-76
2021/08/24 03:23:28;;;;;;;4.00;2.10;;;13.50;99.90;;;;;;2631340;47;20132;-76
2021/08/24 03:26:00;;;;;;;2.50;2.30;;;13.50;99.90;;;;;;2631008;54;20164;-76
2021/08/24 03:28:29;;;;;;;5.82;2.03;;;13.70;99.90;;;;;;2631035;47;20156;-78
2021/08/24 03:30:59;;;;;;;3.92;2.08;;;13.90;99.90;;;;;;2631223;54;20148;-76
2021/08/24 03:33:27;;;;;;;2.67;2.47;;;13.80;99.90;;;;;;2631209;47;20130;-76
2021/08/24 03:35:56;;;;;;;2.63;2.28;;;13.90;99.90;;;;;;2630832;46;20857;-76
2021/08/24 03:38:25;;;;;;;5.97;2.55;;;14.20;99.90;;;;;;2631311;47;20145;-77
2021/08/24 03:40:54;;;;;;;3.13;1.95;;;14.20;99.90;;;;;;2631065;54;20758;-77
2021/08/24 03:43:25;;;;;;;2.83;2.60;;;14.00;99.90;;;;;;2631136;47;20197;-76
2021/08/24 03:45:54;;;;;;;2.55;2.08;;;13.90;99.90;;;;;;2630815;54;20146;-77
2021/08/24 03:48:22;;;;;;;3.53;2.95;;;13.90;99.90;;;;;;2630991;54;20139;-77
2021/08/24 03:50:52;;;;;;;5.30;2.30;;;13.60;99.90;;;;;;2631032;54;20164;-77
2021/08/24 03:53:21;;;;;;;2.42;2.22;;;13.20;99.90;;;;;;2631090;54;20140;-78
2021/08/24 03:55:50;;;;;;;3.80;2.80;;;13.00;99.90;;;;;;2631013;54;20172;-77
2021/08/24 03:58:18;;;;;;;4.03;2.63;;;13.00;99.90;;;;;;2633259;46;20152;-77
2021/08/24 04:00:51;;;;;;;3.10;2.88;;;12.60;99.90;;;;;;2629539;54;20162;-77
2021/08/24 04:03:19;;;;;;;2.47;2.28;;;12.80;99.90;;;;;;2630362;54;20137;-76
2021/08/24 04:05:48;;;;;;;2.90;2.38;;;12.80;99.90;;;;;;2629949;47;20165;-77
2021/08/24 04:08:17;;;;;;;3.75;3.05;;;12.90;99.90;;;;;;2630516;47;20250;-78
2021/08/24 04:10:45;;;;;;;5.05;3.08;;;12.60;99.90;;;;;;2630341;54;20133;-76
2021/08/24 04:13:14;;;;;;;2.65;2.10;;;12.70;99.90;;;;;;2630505;47;20144;-77
2021/08/24 04:15:43;;;;;;;2.80;2.60;;;12.60;99.90;;;;;;2630310;54;20166;-78
2021/08/24 04:18:15;;;;;;;4.97;2.85;;;12.50;99.90;;;;;;2630561;54;20153;-77
2021/08/24 04:20:45;;;;;;;4.75;3.03;;;12.50;99.90;;;;;;2630243;47;20214;-76
2021/08/24 04:23:17;;;;;;;3.90;2.58;;;12.70;99.90;;;;;;2630097;47;20825;-76
2021/08/24 04:25:46;;;;;;;3.92;2.95;;;12.80;99.90;;;;;;2630152;54;20173;-76
2021/08/24 04:28:14;;;;;;;2.58;2.38;;;13.10;99.90;;;;;;2630349;47;20145;-77
2021/08/24 04:30:43;;;;;;;3.22;2.78;;;13.40;99.90;;;;;;2631333;39;20647;-74
2021/08/24 04:33:14;;;;;;;3.72;2.97;;;13.40;99.90;;;;;;2630435;54;20157;-77
2021/08/24 04:35:43;;;;;;;3.45;2.80;;;13.40;99.90;;;;;;2629833;54;20180;-74
2021/08/24 04:38:12;;;;;;;6.20;3.45;;;13.50;99.90;;;;;;2629818;47;20201;-74
2021/08/24 04:40:40;;;;;;;6.63;3.70;;;13.60;99.90;;;;;;2629989;54;20149;-73
2021/08/24 04:43:09;;;;;;;5.20;3.92;;;13.60;99.90;;;;;;2630298;54;20156;-74
2021/08/24 04:45:38;;;;;;;5.35;3.97;;;13.60;99.90;;;;;;2629790;54;20891;-74
2021/08/24 04:48:08;;;;;;;4.57;3.70;;;13.70;99.90;;;;;;2630048;46;20180;-75
2021/08/24 04:50:40;;;;;;;4.47;2.30;;;13.80;99.90;;;;;;2629404;47;20260;-75
2021/08/24 04:53:09;;;;;;;3.70;2.45;;;13.60;99.90;;;;;;2629704;47;20174;-75
2021/08/24 04:55:38;;;;;;;4.57;2.30;;;13.50;99.90;;;;;;2629957;54;20173;-75
2021/08/24 04:58:07;;;;;;;3.22;2.92;;;13.40;99.90;;;;;;2629909;54;20177;-76
2021/08/24 05:00:37;;;;;;;3.35;3.05;;;13.30;99.90;;;;;;2629633;47;20145;-76
2021/08/24 05:03:06;;;;;;;3.30;3.00;;;13.20;99.90;;;;;;2630301;54;20134;-75
2021/08/24 05:05:34;;;;;;;2.63;2.42;;;13.30;99.90;;;;;;2629469;47;20169;-76
2021/08/24 05:08:06;;;;;;;6.18;2.58;;;13.30;99.90;;;;;;2630354;47;20285;-75
2021/08/24 05:10:36;;;;;;;4.05;2.95;;;13.40;99.90;;;;;;2629934;54;20136;-76
2021/08/24 05:13:05;;;;;;;2.92;2.70;;;13.40;99.90;;;;;;2630202;54;20151;-75
2021/08/24 05:15:34;;;;;;;4.20;2.80;;;13.40;99.90;;;;;;2629991;54;20153;-75
2021/08/24 05:18:03;;;;;;;3.13;2.08;;;13.40;99.90;;;;;;2629897;54;20205;-76
2021/08/24 05:20:32;;;;;;;3.65;3.03;;;13.50;99.90;;;;;;2629421;47;20161;-75
2021/08/24 05:23:01;;;;;;;4.63;2.30;;;13.50;99.90;;;;;;2629913;54;20172;-76
2021/08/24 05:25:33;;;;;;;5.28;2.95;;;13.50;99.90;;;;;;2629312;47;20269;-75
2021/08/24 05:28:01;;;;;;;3.97;2.80;;;13.70;99.90;;;;;;2630126;54;20205;-75
2021/08/24 05:30:30;;;;;;;4.88;2.40;;;13.80;99.90;;;;;;2630885;39;20649;-76
2021/08/24 05:33:00;;;;;;;7.22;4.68;;;13.90;99.90;;;;;;2632622;39;20832;-76
2021/08/24 05:35:29;;;;;;;5.90;5.30;;;14.00;99.90;;;;;;2629774;47;20168;-77
2021/08/24 05:37:58;;;;;;;4.70;3.92;;;14.10;99.90;;;;;;2629911;54;20130;-76
2021/08/24 05:40:26;;;;;;;5.82;4.78;;;14.30;99.90;;;;;;2629304;39;20864;-76
2021/08/24 05:42:58;;;;;;;16.55;13.50;;;14.40;99.90;;;;;;2629549;54;20160;-76
2021/08/24 05:45:27;;;;;;;11.27;8.88;;;14.40;99.90;;;;;;2628997;54;20168;-76
2021/08/24 05:47:55;;;;;;;4.60;3.90;;;14.50;99.90;;;;;;2629480;47;20161;-76
2021/08/24 05:50:26;;;;;;;3.28;2.95;;;14.50;99.90;;;;;;2629176;54;20148;-77
2021/08/24 05:52:56;;;;;;;5.55;3.67;;;14.50;99.90;;;;;;2629872;54;20176;-75
2021/08/24 05:55:25;;;;;;;5.20;2.92;;;14.40;99.90;;;;;;2629171;54;20177;-75
2021/08/24 05:57:55;;;;;;;3.25;2.65;;;14.40;99.90;;;;;;2628983;47;20769;-75
2021/08/24 06:00:26;;;;;;;4.80;3.55;;;14.50;99.90;;;;;;2628907;47;20160;-77
2021/08/24 06:02:56;;;;;;;3.13;2.17;;;14.70;99.90;;;;;;2629744;54;20213;-79
2021/08/24 06:05:25;;;;;;;5.15;3.38;;;14.70;99.90;;;;;;2629108;47;20191;-77
2021/08/24 06:07:53;;;;;;;3.35;2.92;;;14.70;99.90;;;;;;2625837;54;20153;-78
2021/08/24 06:10:22;;;;;;;6.43;3.35;;;14.80;99.90;;;;;;2626098;54;20153;-78
2021/08/24 06:12:51;;;;;;;3.88;3.55;;;14.90;99.90;;;;;;2625238;54;20157;-77
2021/08/24 06:15:20;;;;;;;4.43;2.78;;;15.00;99.90;;;;;;2624979;54;20307;-76
2021/08/24 06:17:52;;;;;;;5.68;2.78;;;15.10;99.90;;;;;;2625242;54;20210;-77
2021/08/24 06:20:20;;;;;;;3.42;2.90;;;15.30;99.90;;;;;;2624784;47;20157;-77
2021/08/24 06:22:49;;;;;;;5.90;2.38;;;15.20;99.90;;;;;;2625097;54;20205;-78
2021/08/24 06:25:18;;;;;;;3.97;3.22;;;15.20;99.90;;;;;;2626921;47;20169;-78
2021/08/24 06:27:47;;;;;;;6.95;2.58;;;15.40;99.90;;;;;;2625986;46;20187;-76
2021/08/24 06:30:16;;;;;;;3.67;2.85;;;15.50;99.90;;;;;;2624885;47;20154;-76
2021/08/24 06:32:48;;;;;;;4.50;2.67;;;15.50;99.90;;;;;;2623613;47;20177;-77
2021/08/24 06:35:21;;;;;;;5.43;2.40;;;15.60;99.90;;;;;;2624104;54;20165;-76
2021/08/24 06:37:50;;;;;;;5.70;2.88;;;15.80;99.90;;;;;;2623388;54;20149;-77
2021/08/24 06:40:19;;;;;;;4.47;2.65;;;16.10;99.90;;;;;;2623572;54;20786;-77
2021/08/24 06:42:55;;;;;;;6.25;3.15;;;16.10;99.90;;;;;;2624420;39;20624;-75
2021/08/24 06:45:26;;;;;;;3.20;2.10;;;16.10;99.90;;;;;;2622824;47;20169;-76
2021/08/24 06:47:54;;;;;;;3.42;2.22;;;16.00;99.90;;;;;;2627881;47;20141;-77
2021/08/24 06:50:27;;;;;;;3.35;1.75;;;16.10;99.90;;;;;;2626061;47;20164;-77
2021/08/24 06:52:57;;;;;;;3.85;2.35;;;16.00;99.90;;;;;;2623820;51;20185;-76
2021/08/24 06:55:30;;;;;;;3.65;2.45;;;16.20;99.90;;;;;;2624357;39;20586;-77
2021/08/24 06:57:59;;;;;;;4.07;2.60;;;16.30;99.90;;;;;;2623541;54;20165;-76
2021/08/24 07:00:29;;;;;;;2.47;2.20;;;16.50;99.90;;;;;;2624037;47;20164;-76
2021/08/24 07:02:58;;;;;;;3.47;2.22;;;16.50;99.90;;;;;;2622610;54;20168;-77
2021/08/24 07:05:32;;;;;;;4.72;2.40;;;16.50;99.90;;;;;;2624036;46;20181;-75
2021/08/24 07:08:01;;;;;;;3.55;2.10;;;16.70;99.90;;;;;;2623544;47;20155;-76
2021/08/24 07:10:30;;;;;;;4.32;2.33;;;16.80;99.90;;;;;;2623875;47;20157;-77
2021/08/24 07:12:59;;;;;;;8.65;2.25;;;16.80;99.90;;;;;;2623130;46;20153;-76
2021/08/24 07:15:30;;;;;;;3.65;1.98;;;16.80;99.90;;;;;;2623414;54;20723;-76
2021/08/24 07:18:00;;;;;;;4.97;2.72;;;16.90;99.90;;;;;;2624319;54;20161;-78
2021/08/24 07:20:31;;;;;;;3.17;1.73;;;17.20;99.90;;;;;;2624322;39;20610;-76
2021/08/24 07:23:01;;;;;;;3.72;2.42;;;17.10;99.90;;;;;;2624144;47;20145;-78
2021/08/24 07:25:37;;;;;;;6.65;2.05;;;17.00;99.90;;;;;;2623887;47;20258;-78
2021/08/24 07:28:10;;;;;;;5.32;2.22;;;17.30;99.90;;;;;;2623699;54;20157;-78
2021/08/24 07:30:41;;;;;;;3.17;1.65;;;17.40;99.90;;;;;;2621903;51;20187;-78
2021/08/24 07:33:11;;;;;;;4.65;2.15;;;17.40;99.90;;;;;;2624111;47;20164;-77
2021/08/24 07:35:43;;;;;;;3.83;2.38;;;17.40;99.90;;;;;;2625682;47;20216;-79
2021/08/24 07:38:11;;;;;;;3.00;1.88;;;17.70;99.90;;;;;;2625269;54;20164;-79
2021/08/24 07:40:40;;;;;;;4.32;2.10;;;17.90;99.90;;;;;;2625812;47;20164;-78
2021/08/24 07:43:09;;;;;;;2.60;1.92;;;17.90;99.90;;;;;;2625903;54;20149;-78
2021/08/24 07:45:38;;;;;;;1.70;1.50;;;17.80;99.90;;;;;;2623959;47;20180;-78
2021/08/24 07:48:07;;;;;;;1.98;1.83;;;18.10;99.90;;;;;;2623469;46;20157;-78
2021/08/24 07:50:37;;;;;;;3.13;2.17;;;18.10;99.90;;;;;;2623607;54;20284;-78
2021/08/24 07:53:08;;;;;;;3.83;2.65;;;17.90;99.90;;;;;;2623349;54;20145;-78
2021/08/24 07:55:37;;;;;;;2.97;1.98;;;17.90;99.90;;;;;;2623360;47;20180;-79
2021/08/24 07:58:06;;;;;;;4.43;1.55;;;18.00;99.90;;;;;;2623900;51;20149;-77
2021/08/24 08:00:35;;;;;;;5.13;2.25;;;17.70;99.90;;;;;;2624106;54;20197;-78
2021/08/24 08:03:04;;;;;;;3.08;1.67;;;17.80;99.90;;;;;;2625117;46;20179;-79
2021/08/24 08:05:34;;;;;;;2.88;2.25;;;18.00;99.90;;;;;;2624554;54;20247;-77
2021/08/24 08:08:03;;;;;;;4.28;1.90;;;18.40;99.90;;;;;;2623959;47;20157;-77
2021/08/24 08:10:35;;;;;;;2.47;1.40;;;18.10;99.90;;;;;;2623431;47;20160;-76
2021/08/24 08:13:03;;;;;;;6.80;2.45;;;18.30;99.90;;;;;;2624163;54;20163;-76
2021/08/24 08:15:33;;;;;;;5.05;1.80;;;18.20;99.90;;;;;;2624311;47;20189;-76
2021/08/24 08:18:03;;;;;;;3.85;1.58;;;18.40;99.90;;;;;;2624616;47;20993;-77
2021/08/24 08:20:33;;;;;;;2.33;1.85;;;18.60;99.90;;;;;;2626542;54;20230;-78
2021/08/24 08:23:04;;;;;;;1.77;1.65;;;18.70;99.90;;;;;;2628135;47;20165;-79
2021/08/24 08:25:36;;;;;;;3.63;1.33;;;18.90;99.90;;;;;;2625275;47;20157;-77
2021/08/24 08:28:06;;;;;;;4.43;1.95;;;19.20;99.90;;;;;;2625618;47;20168;-77
2021/08/24 08:30:35;;;;;;;1.23;1.13;;;19.20;99.90;;;;;;2625848;47;20153;-77
2021/08/24 08:33:06;;;;;;;1.63;1.42;;;19.20;99.90;;;;;;2625069;47;20160;-78
2021/08/24 08:35:35;;;;;;;1.20;1.00;;;19.10;99.90;;;;;;2625938;46;20177;-77
2021/08/24 08:38:04;;;;;;;1.88;1.63;;;19.00;99.90;;;;;;2625798;54;20168;-77
2021/08/24 08:40:45;;;;;;;3.28;1.77;;;18.90;99.90;;;;;;2624432;47;20675;-78
2021/08/24 08:43:25;;;;;;;1.35;1.20;;;19.00;99.90;;;;;;2622989;47;20161;-78
2021/08/24 08:45:55;;;;;;;1.73;1.05;;;19.10;99.90;;;;;;2623141;54;20168;-77
2021/08/24 08:48:47;;;;;;;4.05;1.65;;;19.20;99.90;;;;;;2623771;47;20161;-78
2021/08/24 08:51:39;;;;;;;1.90;1.25;;;19.40;99.90;;;;;;2623879;47;20161;-77
2021/08/24 08:54:19;;;;;;;1.95;1.63;;;19.90;99.90;;;;;;2625059;39;20308;-76
2021/08/24 08:56:54;;;;;;;2.60;1.40;;;20.00;99.90;;;;;;2624128;47;20208;-77
